KBDH Airport (Willmar Muni-John L Rice Field) Information

FAA: BDH - ICAO: KBDH

KBDH Airport Location

State Minnesota
County Kandiyohi
City Willmar
KBDH Airport is 2 miles west of Willmar, MN.
Latitude 45-07-01.3000N
Longitude 095-07-45.6000W
Elevation 1,126ft

KBDH Airport METARs

METAR KBDH 200355Z AUTO 02009KT 10SM CLR 14/09 A2999 RMK AO2 LTG DSNT E
Altimeter 29.99"
Temperature 14.0°C (57.2°F)
Wind 20° at 9KT
Clouds Skies are clear.
Visibility 10.0mi
Time observed: 2021-10-20T03:55:00Z

KBDH Airport Details

Status Operational
Activation September 2006
Ownership Public
Usage Public
Chart TWIN CITIES
ATC on-site No
Beacon schedule sunset-sunrise
Beacon color clear green

KBDH Airport Contacts

Owner CITY OF WILLMAR
Owner address P,O. BOX 755, WILLMAR, MN 56201
Owner phone (320) 235-4913
Manager MAYNARD STENSRUD
Manager address 35493 - 110TH ST, WASECA, MN 56093
Manager phone 507-835-5920

KBDH Airport (Willmar Muni-John L Rice Field) Radio Frequencies

KBDH (Airport) Radio Frequencies

UNICOM 122.8
Common traffic advisory frequency (CTAF) 122.8